Time;durP1;ratioP1;P1;durP2;ratioP2;P2;SDS_P1;SDS_P2;PMS_P1;PMS_P2;Temp;Humidity;BMP_temperature;BMP_pressure;BME280_temperature;BME280_humidity;BME280_pressure;Samples;Min_cycle;Max_cycle;Signal;HPM_P1;HPM_P2
2022/06/29 00:00:40;;;;;;;2.75;1.70;;;;;;;21.09;49.80;101516.78;5105664;27;20067;-67
2022/06/29 00:03:08;;;;;;;3.72;2.00;;;;;;;21.08;49.87;101519.78;5113119;27;20051;-67
2022/06/29 00:05:36;;;;;;;4.78;2.22;;;;;;;21.04;49.84;101521.44;5120596;27;20058;-66
2022/06/29 00:08:04;;;;;;;4.55;1.77;;;;;;;21.04;49.69;101519.50;5112705;27;20040;-67
2022/06/29 00:10:37;;;;;;;3.88;1.90;;;;;;;21.03;49.75;101517.06;5113522;28;20048;-67
2022/06/29 00:13:05;;;;;;;4.70;2.10;;;;;;;20.99;49.85;101519.53;5104820;28;20056;-66
2022/06/29 00:15:33;;;;;;;4.25;1.80;;;;;;;20.99;49.78;101524.16;5121246;28;20055;-67
2022/06/29 00:18:01;;;;;;;3.67;1.80;;;;;;;20.96;49.87;101511.88;5121067;27;20520;-66
2022/06/29 00:20:28;;;;;;;2.63;1.90;;;;;;;20.96;49.87;101508.31;5110943;27;20067;-66
2022/06/29 00:22:56;;;;;;;5.00;2.28;;;;;;;20.95;49.74;101509.41;5114939;28;20071;-66
2022/06/29 00:25:24;;;;;;;2.90;1.83;;;;;;;20.92;49.88;101510.78;5121949;27;20077;-67
2022/06/29 00:27:53;;;;;;;4.40;2.00;;;;;;;20.92;49.79;101499.84;5115312;27;20097;-66
2022/06/29 00:30:21;;;;;;;4.65;2.00;;;;;;;20.90;49.89;101510.25;5121527;28;20097;-66
2022/06/29 00:32:49;;;;;;;5.05;2.30;;;;;;;20.89;49.79;101508.59;5121687;28;20073;-67
2022/06/29 00:35:16;;;;;;;5.15;1.80;;;;;;;20.89;49.86;101507.78;5123827;27;20059;-67
2022/06/29 00:37:44;;;;;;;2.75;1.80;;;;;;;20.86;49.90;101500.94;5113784;28;20052;-67
2022/06/29 00:40:13;;;;;;;3.55;1.90;;;;;;;20.87;49.99;101499.03;5110653;28;20072;-67
2022/06/29 00:42:41;;;;;;;5.30;2.47;;;;;;;20.84;49.93;101499.59;5113174;28;20264;-67
2022/06/29 00:45:11;;;;;;;6.57;2.17;;;;;;;20.83;49.90;101504.22;5120475;28;20066;-66
2022/06/29 00:47:39;;;;;;;4.75;2.05;;;;;;;20.82;49.86;101497.13;5111953;27;20482;-66
2022/06/29 00:50:07;;;;;;;3.17;1.92;;;;;;;20.80;50.03;101489.22;5115902;28;20055;-67
2022/06/29 00:52:39;;;;;;;2.33;1.65;;;;;;;20.79;50.00;101492.25;5117899;28;20063;-67
2022/06/29 00:55:10;;;;;;;3.00;1.70;;;;;;;20.78;49.93;101493.34;5117861;28;20075;-67
2022/06/29 00:57:41;;;;;;;5.45;1.98;;;;;;;20.76;50.03;101492.78;5120751;28;20054;-67
2022/06/29 01:00:12;;;;;;;4.50;1.90;;;;;;;20.73;49.98;101491.44;5116086;27;20117;-66
2022/06/29 01:02:40;;;;;;;4.00;1.63;;;;;;;20.72;50.10;101481.59;5108914;28;20051;-66
2022/06/29 01:05:09;;;;;;;4.55;2.22;;;;;;;20.71;50.12;101477.22;5110104;27;20082;-67
2022/06/29 01:07:37;;;;;;;6.32;1.83;;;;;;;20.70;50.19;101478.31;5116429;28;20044;-67
2022/06/29 01:10:05;;;;;;;4.63;1.60;;;;;;;20.68;50.19;101479.69;5117383;27;20049;-67
2022/06/29 01:12:33;;;;;;;4.50;2.20;;;;;;;20.66;50.21;101479.13;5112670;28;20044;-67
2022/06/29 01:15:01;;;;;;;2.25;1.63;;;;;;;20.63;50.30;101485.97;5117360;28;20496;-66
2022/06/29 01:17:30;;;;;;;5.45;1.70;;;;;;;20.61;50.26;101484.59;5120229;28;20055;-66
2022/06/29 01:19:58;;;;;;;4.28;1.90;;;;;;;20.60;50.25;101477.50;5123539;27;20043;-65
2022/06/29 01:22:27;;;;;;;4.65;2.17;;;;;;;20.59;50.19;101482.16;5118227;28;20039;-66
2022/06/29 01:24:55;;;;;;;3.47;1.95;;;;;;;20.57;50.12;101487.06;5109111;28;20075;-67
2022/06/29 01:27:24;;;;;;;7.10;2.33;;;;;;;20.55;50.27;101481.06;5119112;28;20048;-67
2022/06/29 01:29:52;;;;;;;4.25;1.92;;;;;;;20.54;50.33;101473.13;5114313;28;20046;-66
2022/06/29 01:32:21;;;;;;;2.80;1.67;;;;;;;20.52;50.39;101484.31;5114443;28;20044;-66
2022/06/29 01:34:49;;;;;;;4.25;2.08;;;;;;;20.50;50.50;101481.06;5134439;28;20405;-66
2022/06/29 01:37:17;;;;;;;4.60;1.98;;;;;;;20.50;50.29;101482.97;5111606;28;20078;-66
2022/06/29 01:39:46;;;;;;;3.83;1.90;;;;;;;20.48;50.38;101471.50;5112643;28;20047;-66
2022/06/29 01:42:14;;;;;;;5.03;1.85;;;;;;;20.45;50.52;101472.84;5118280;28;20079;-66
2022/06/29 01:44:42;;;;;;;4.45;1.90;;;;;;;20.45;50.49;101468.22;5108284;28;20039;-66
2022/06/29 01:47:09;;;;;;;4.10;1.80;;;;;;;20.43;50.58;101472.31;5106650;28;20085;-67
2022/06/29 01:49:37;;;;;;;3.85;2.10;;;;;;;20.43;50.39;101464.13;5111969;28;20070;-67
2022/06/29 01:52:05;;;;;;;4.47;1.77;;;;;;;20.41;50.51;101463.56;5112256;28;20159;-67
2022/06/29 01:54:33;;;;;;;4.72;1.85;;;;;;;20.38;50.58;101470.41;5111193;28;20047;-67
2022/06/29 01:57:03;;;;;;;3.40;2.00;;;;;;;20.38;50.48;101464.09;5107461;28;20123;-67
2022/06/29 01:59:30;;;;;;;4.18;1.95;;;;;;;20.36;50.73;101461.63;5113093;28;20058;-67
2022/06/29 02:01:58;;;;;;;3.53;1.67;;;;;;;20.35;50.51;101456.44;5117009;28;20413;-67
2022/06/29 02:04:26;;;;;;;3.85;1.80;;;;;;;20.34;50.58;101452.06;5120752;28;20051;-67
2022/06/29 02:06:54;;;;;;;4.05;1.83;;;;;;;20.32;50.69;101452.34;5123918;28;20063;-67
2022/06/29 02:09:22;;;;;;;3.35;1.92;;;;;;;20.32;50.60;101454.25;5118767;28;20435;-67
2022/06/29 02:11:50;;;;;;;5.22;2.22;;;;;;;20.31;50.71;101447.16;5116480;28;20051;-67
2022/06/29 02:14:20;;;;;;;5.47;2.30;;;;;;;20.30;50.61;101445.50;5118967;28;20092;-67
2022/06/29 02:16:47;;;;;;;2.35;1.75;;;;;;;20.28;50.77;101445.78;5124437;28;20051;-67
2022/06/29 02:19:15;;;;;;;4.25;2.00;;;;;;;20.27;50.75;101449.59;5119630;28;20086;-67
2022/06/29 02:21:43;;;;;;;4.75;2.33;;;;;;;20.26;50.83;101449.88;5118485;27;20082;-67
2022/06/29 02:24:11;;;;;;;4.72;2.53;;;;;;;20.23;50.93;101447.69;5124785;28;20082;-67
2022/06/29 02:26:39;;;;;;;2.70;1.83;;;;;;;20.24;50.94;101452.06;5116765;28;20051;-66
2022/06/29 02:29:07;;;;;;;4.25;2.67;;;;;;;20.22;50.88;101455.06;5114669;27;20086;-68
2022/06/29 02:37:06;;;;;;;3.88;2.10;;;;;;;20.19;50.97;101450.16;5122176;28;20048;-66
2022/06/29 02:39:34;;;;;;;3.58;1.92;;;;;;;20.18;51.02;101455.88;5111423;28;20078;-67
2022/06/29 02:42:02;;;;;;;4.38;2.10;;;;;;;20.15;51.03;101449.88;5110247;28;20505;-67
2022/06/29 02:44:30;;;;;;;4.80;2.28;;;;;;;20.14;51.02;101437.31;5110593;28;20054;-67
2022/06/29 02:46:59;;;;;;;6.35;2.13;;;;;;;20.12;51.09;101438.66;5112115;27;20046;-66
2022/06/29 02:49:26;;;;;;;4.13;2.20;;;;;;;20.11;50.96;101445.22;5125661;28;20071;-66
2022/06/29 02:51:54;;;;;;;6.20;2.20;;;;;;;20.09;51.14;101436.47;5115401;27;20090;-67
2022/06/29 02:54:22;;;;;;;4.35;2.22;;;;;;;20.07;51.19;101431.28;5116492;27;20047;-67
2022/06/29 02:56:50;;;;;;;5.95;2.78;;;;;;;20.06;51.07;101429.66;5114615;27;20059;-66
2022/06/29 02:59:18;;;;;;;5.28;2.13;;;;;;;20.04;51.16;101431.84;5115953;28;20071;-65
2022/06/29 03:01:46;;;;;;;4.50;2.25;;;;;;;20.03;51.32;101432.94;5114639;27;20071;-66
2022/06/29 03:04:15;;;;;;;3.95;1.95;;;;;;;20.01;51.10;101431.56;5123398;27;20040;-67
2022/06/29 03:06:43;;;;;;;2.97;1.95;;;;;;;20.00;51.16;101429.91;5117620;27;20047;-66
2022/06/29 03:09:11;;;;;;;5.55;2.28;;;;;;;19.99;51.38;101425.56;5119038;28;20101;-66
2022/06/29 03:11:39;;;;;;;3.92;1.95;;;;;;;19.98;51.32;101422.00;5111335;28;20464;-66
2022/06/29 03:14:07;;;;;;;4.72;2.30;;;;;;;19.97;51.17;101419.53;5112955;27;20102;-65
2022/06/29 03:16:35;;;;;;;5.72;2.45;;;;;;;19.95;51.29;101424.47;5121465;28;20094;-66
2022/06/29 03:19:03;;;;;;;6.93;2.55;;;;;;;19.94;51.44;101415.44;5128854;27;20119;-67
2022/06/29 03:21:32;;;;;;;3.22;1.85;;;;;;;19.91;51.33;101416.00;5107215;28;20077;-66
2022/06/29 03:24:01;;;;;;;5.70;2.83;;;;;;;19.92;51.45;101423.09;5115110;28;20036;-66
2022/06/29 03:26:28;;;;;;;4.93;2.17;;;;;;;19.91;51.40;101417.91;5118247;27;20044;-66
2022/06/29 03:28:56;;;;;;;6.60;2.70;;;;;;;19.89;51.49;101423.63;5116055;27;20078;-67
2022/06/29 03:31:24;;;;;;;6.47;3.00;;;;;;;19.87;51.28;101408.63;5115345;28;20043;-66
2022/06/29 03:33:52;;;;;;;6.32;2.10;;;;;;;19.87;51.45;101405.88;5116426;28;20048;-66
2022/06/29 03:36:20;;;;;;;4.43;2.53;;;;;;;19.86;51.44;101401.53;5119872;27;20079;-67
2022/06/29 03:38:49;;;;;;;3.67;2.55;;;;;;;19.85;51.52;101403.44;5110956;28;20055;-66
2022/06/29 03:41:16;;;;;;;5.75;2.30;;;;;;;19.83;51.41;101398.25;5122954;27;20051;-66
2022/06/29 03:43:44;;;;;;;3.90;2.15;;;;;;;19.82;51.34;101395.78;5105321;28;20070;-66
2022/06/29 03:46:12;;;;;;;4.70;2.83;;;;;;;19.82;51.57;101393.06;5104680;28;20044;-66
2022/06/29 03:48:40;;;;;;;5.80;1.80;;;;;;;19.80;51.60;101384.31;5109707;27;20107;-66
2022/06/29 03:51:08;;;;;;;5.15;2.13;;;;;;;19.79;51.49;101388.97;5106821;28;20043;-67
2022/06/29 03:53:36;;;;;;;6.00;2.35;;;;;;;19.79;51.64;101394.41;5123301;27;20063;-66
2022/06/29 03:56:05;;;;;;;3.72;2.35;;;;;;;19.76;51.61;101386.78;5118335;28;20071;-66
2022/06/29 03:58:33;;;;;;;8.07;2.47;;;;;;;19.76;51.83;101380.50;5119571;27;20043;-66
2022/06/29 04:01:06;;;;;;;5.00;2.38;;;;;;;19.70;51.82;101370.66;5111286;27;20073;-66
2022/06/29 04:03:34;;;;;;;3.22;2.13;;;;;;;19.74;51.94;101378.03;5122454;28;20058;-66
2022/06/29 04:06:02;;;;;;;5.35;2.30;;;;;;;19.73;52.05;101381.84;5115975;28;20051;-66
2022/06/29 04:08:30;;;;;;;3.42;2.20;;;;;;;19.72;51.90;101377.50;5117904;27;20070;-66
2022/06/29 04:10:58;;;;;;;4.32;2.30;;;;;;;19.71;51.90;101384.03;5103734;28;20076;-66
2022/06/29 04:13:27;;;;;;;4.07;2.10;;;;;;;19.71;51.81;101384.03;5106859;27;20056;-66
2022/06/29 04:15:55;;;;;;;7.60;2.65;;;;;;;19.68;51.75;101384.56;5111365;27;20040;-66
2022/06/29 04:18:23;;;;;;;4.93;2.70;;;;;;;19.68;51.80;101386.47;5114408;28;20129;-66
2022/06/29 04:23:38;;;;;;;3.45;1.77;;;;;;;19.65;52.14;101381.56;5110947;28;20079;-66
2022/06/29 04:26:06;;;;;;;4.47;2.22;;;;;;;19.63;52.13;101384.56;5117317;28;20181;-65
2022/06/29 04:28:36;;;;;;;5.57;2.80;;;;;;;19.61;51.89;101375.84;5112419;27;20047;-66
2022/06/29 04:31:03;;;;;;;5.75;2.80;;;;;;;19.62;52.04;101373.94;5116179;28;20052;-66
2022/06/29 04:33:32;;;;;;;5.30;2.63;;;;;;;19.60;52.09;101374.19;5103486;28;20048;-65
2022/06/29 04:35:59;;;;;;;5.13;2.22;;;;;;;19.59;52.25;101386.19;5114363;28;20074;-66
2022/06/29 04:38:27;;;;;;;2.63;1.95;;;;;;;19.59;52.24;101378.00;5115610;28;20071;-65
2022/06/29 04:40:55;;;;;;;4.45;2.65;;;;;;;19.58;52.18;101375.56;5110980;28;20043;-66
2022/06/29 04:43:24;;;;;;;4.82;2.30;;;;;;;19.57;52.27;101384.81;5114243;28;20067;-65
2022/06/29 04:48:44;;;;;;;4.85;2.47;;;;;;;19.53;52.48;101378.25;5094856;28;20093;-65
2022/06/29 04:51:11;;;;;;;3.78;2.42;;;;;;;19.54;52.50;101385.34;5104340;28;20480;-65
2022/06/29 04:53:39;;;;;;;4.85;2.35;;;;;;;19.55;52.30;101381.53;5110468;27;20040;-66
2022/06/29 04:56:07;;;;;;;3.17;2.13;;;;;;;19.53;52.39;101378.25;5117622;28;20059;-66
2022/06/29 04:58:35;;;;;;;6.53;2.20;;;;;;;19.54;52.41;101388.09;5109133;27;20075;-65
2022/06/29 05:01:04;;;;;;;6.97;2.38;;;;;;;19.54;52.16;101378.00;5102795;27;20076;-66
2022/06/29 05:03:37;;;;;;;4.50;2.22;;;;;;;19.42;52.18;101355.56;5114429;27;20050;-66
2022/06/29 05:06:06;;;;;;;3.58;2.25;;;;;;;19.55;52.21;101382.34;5121629;27;20047;-66
2022/06/29 05:08:33;;;;;;;3.90;1.88;;;;;;;19.56;52.25;101378.53;5105644;28;20108;-67
2022/06/29 05:11:01;;;;;;;4.32;2.30;;;;;;;19.58;52.17;101370.91;5102250;28;20043;-67
2022/06/29 05:13:29;;;;;;;6.45;2.78;;;;;;;19.60;52.15;101368.75;5109039;28;20101;-66
2022/06/29 05:15:57;;;;;;;4.93;2.20;;;;;;;19.62;52.30;101376.66;5118964;27;20093;-67
2022/06/29 05:18:28;;;;;;;4.45;2.25;;;;;;;19.65;52.46;101367.94;5118414;28;20048;-66
2022/06/29 05:20:57;;;;;;;5.63;2.47;;;;;;;19.66;52.09;101364.94;5108623;28;20048;-65
2022/06/29 05:23:25;;;;;;;5.43;2.20;;;;;;;19.69;52.03;101369.03;5108621;27;20056;-66
2022/06/29 05:25:53;;;;;;;8.48;2.20;;;;;;;19.72;52.19;101368.50;5116464;28;20040;-66
2022/06/29 05:28:21;;;;;;;4.55;2.08;;;;;;;19.74;52.21;101363.59;5111358;28;20048;-66
2022/06/29 05:30:49;;;;;;;3.83;2.38;;;;;;;19.76;52.10;101366.88;5109901;28;20515;-67
2022/06/29 05:33:17;;;;;;;4.43;2.38;;;;;;;19.79;52.12;101358.13;5110307;28;20052;-66
2022/06/29 05:35:46;;;;;;;4.32;2.10;;;;;;;19.81;52.19;101359.50;5109270;28;20078;-67
2022/06/29 05:38:13;;;;;;;4.43;2.03;;;;;;;19.83;52.10;101360.06;5103259;28;20044;-71
2022/06/29 05:40:42;;;;;;;3.95;2.03;;;;;;;19.85;52.40;101359.78;4747987;27;10000497;-67
2022/06/29 05:43:10;;;;;;;3.05;1.88;;;;;;;19.87;52.21;101352.16;5102446;28;20454;-65
2022/06/29 05:45:38;;;;;;;4.78;2.50;;;;;;;19.90;52.17;101353.50;5104907;28;20059;-70
2022/06/29 05:48:06;;;;;;;4.45;2.30;;;;;;;19.91;52.29;101357.88;5107644;28;20060;-68
2022/06/29 05:50:34;;;;;;;6.32;2.30;;;;;;;19.81;52.11;101334.97;5108713;27;20047;-67
2022/06/29 05:53:03;;;;;;;4.25;2.33;;;;;;;19.94;52.35;101355.44;5110116;28;20079;-70
2022/06/29 05:55:31;;;;;;;3.58;2.20;;;;;;;19.96;52.27;101355.97;5105610;28;20456;-70
2022/06/29 05:57:59;;;;;;;3.00;1.95;;;;;;;19.99;52.19;101357.34;5111843;28;20094;-70
2022/06/29 06:00:27;;;;;;;5.00;2.15;;;;;;;19.98;52.49;101348.34;5113001;28;20107;-70
2022/06/29 06:02:55;;;;;;;3.85;2.40;;;;;;;20.03;52.29;101356.53;5115559;27;20044;-66
2022/06/29 06:05:22;;;;;;;5.93;2.22;;;;;;;20.06;52.38;101361.44;5116547;28;20047;-70
2022/06/29 06:07:51;;;;;;;3.33;2.20;;;;;;;20.08;52.56;101352.97;5112645;28;20137;-69
2022/06/29 06:10:20;;;;;;;5.90;2.45;;;;;;;20.10;52.50;101357.06;5111845;28;20048;-71
2022/06/29 06:12:48;;;;;;;5.35;1.90;;;;;;;20.13;52.44;101363.91;5108930;28;20057;-70
2022/06/29 06:15:15;;;;;;;4.72;2.25;;;;;;;20.15;52.42;101353.53;5121869;27;20059;-69
2022/06/29 06:17:43;;;;;;;5.03;2.42;;;;;;;20.20;52.48;101363.63;5120675;28;20109;-70
2022/06/29 06:20:12;;;;;;;3.45;2.30;;;;;;;20.22;52.35;101358.72;5127419;27;20052;-71
2022/06/29 06:22:39;;;;;;;6.20;2.40;;;;;;;20.24;52.39;101367.44;5108112;28;20079;-70
2022/06/29 06:25:08;;;;;;;4.35;2.13;;;;;;;20.26;52.47;101357.88;5116730;28;20122;-70
2022/06/29 06:27:37;;;;;;;5.35;2.00;;;;;;;20.29;52.51;101361.97;5127519;27;20050;-70
2022/06/29 06:30:06;;;;;;;6.05;2.15;;;;;;;20.31;52.42;101357.06;5113932;28;20055;-70
2022/06/29 06:32:34;;;;;;;5.03;2.00;;;;;;;20.33;52.48;101355.69;5110687;28;20086;-71
2022/06/29 06:35:01;;;;;;;5.45;2.15;;;;;;;20.36;52.48;101357.88;5111032;27;20080;-69
2022/06/29 06:37:29;;;;;;;3.58;2.33;;;;;;;20.38;52.39;101361.19;5108008;28;20327;-72
2022/06/29 06:42:44;;;;;;;3.55;2.08;;;;;;;20.42;52.50;101353.25;5115773;28;20072;-70
2022/06/29 06:45:11;;;;;;;3.42;2.08;;;;;;;20.45;52.65;101350.81;5120333;27;20289;-71
2022/06/29 06:47:39;;;;;;;4.40;2.10;;;;;;;20.49;52.57;101352.97;5115811;28;20584;-71
2022/06/29 06:50:08;;;;;;;5.03;2.20;;;;;;;20.50;52.64;101351.88;5104530;28;20083;-70
2022/06/29 06:52:36;;;;;;;4.07;2.08;;;;;;;20.52;52.57;101349.69;5111611;28;20043;-71
2022/06/29 06:55:04;;;;;;;3.92;1.90;;;;;;;20.54;52.53;101350.25;5106620;28;20054;-69
2022/06/29 06:57:32;;;;;;;3.55;2.00;;;;;;;20.51;52.54;101337.13;5105078;28;20489;-70
2022/06/29 07:00:02;;;;;;;4.45;1.92;;;;;;;20.54;52.67;101347.50;5098567;28;20048;-71
2022/06/29 07:02:30;;;;;;;4.85;2.22;;;;;;;20.61;53.14;101348.03;5109253;28;20059;-71
2022/06/29 07:04:58;;;;;;;3.50;1.80;;;;;;;20.64;53.00;101355.69;5103089;28;20040;-71
2022/06/29 07:07:25;;;;;;;3.25;1.88;;;;;;;20.66;52.90;101353.50;5105369;28;20048;-72
2022/06/29 07:09:53;;;;;;;3.35;1.83;;;;;;;20.69;52.75;101359.22;5112474;28;20052;-70
2022/06/29 07:12:21;;;;;;;2.22;1.60;;;;;;;20.72;52.98;101352.38;5107400;28;20090;-71
2022/06/29 07:14:49;;;;;;;3.78;1.80;;;;;;;20.74;52.95;101351.00;5116741;28;20189;-71
2022/06/29 07:17:18;;;;;;;5.13;2.00;;;;;;;20.76;52.84;101348.81;5113108;28;20048;-71
2022/06/29 07:19:46;;;;;;;3.33;1.70;;;;;;;20.77;52.93;101347.72;5112970;28;20044;-69
2022/06/29 07:22:15;;;;;;;5.88;1.73;;;;;;;20.81;52.99;101345.22;5103097;28;20532;-71
2022/06/29 07:24:43;;;;;;;3.55;1.80;;;;;;;20.80;52.98;101343.63;5110250;28;20077;-70
2022/06/29 07:27:11;;;;;;;2.90;1.83;;;;;;;20.84;53.07;101346.59;5110104;28;20255;-70
2022/06/29 07:29:39;;;;;;;2.90;1.75;;;;;;;20.85;53.24;101345.50;5110757;28;20083;-70
2022/06/29 07:32:08;;;;;;;4.22;1.83;;;;;;;20.87;53.11;101346.84;5115874;28;20421;-70
2022/06/29 07:34:38;;;;;;;3.05;1.95;;;;;;;20.87;53.14;101348.75;5105648;28;20113;-71
2022/06/29 07:37:05;;;;;;;3.10;1.70;;;;;;;20.87;53.05;101346.84;5112384;28;20074;-71
2022/06/29 07:39:33;;;;;;;3.67;1.75;;;;;;;20.88;53.00;101337.56;5105310;28;20043;-71
2022/06/29 07:42:17;;;;;;;2.63;1.50;;;;;;;20.90;53.08;101337.28;5103314;28;20130;-71
2022/06/29 07:44:45;;;;;;;2.45;1.60;;;;;;;20.90;53.20;101343.56;5103386;28;20099;-71
2022/06/29 07:47:12;;;;;;;5.32;1.92;;;;;;;20.90;53.17;101340.00;5112441;28;20448;-71
2022/06/29 07:49:41;;;;;;;3.63;1.77;;;;;;;20.91;53.10;101333.44;5108310;28;20054;-71
2022/06/29 07:52:09;;;;;;;5.25;1.85;;;;;;;20.90;53.29;101334.53;5109887;28;20051;-70
2022/06/29 07:54:37;;;;;;;2.40;1.58;;;;;;;20.92;53.27;101340.53;5103643;28;20472;-71
2022/06/29 07:57:05;;;;;;;6.32;1.63;;;;;;;20.91;53.39;101337.00;5107115;28;20052;-71
2022/06/29 07:59:42;;;;;;;2.58;1.70;;;;;;;20.91;53.36;101331.53;5105334;28;20132;-70
2022/06/29 08:02:10;;;;;;;2.95;1.80;;;;;;;20.92;53.50;101333.16;5104248;28;20080;-70
2022/06/29 08:04:38;;;;;;;2.38;1.60;;;;;;;20.92;53.69;101332.34;5108959;28;20067;-71
2022/06/29 08:07:27;;;;;;;3.47;1.77;;;;;;;20.93;53.81;101326.59;5109586;28;20276;-71
2022/06/29 08:09:55;;;;;;;2.97;1.52;;;;;;;20.85;53.91;101315.44;5107898;28;20044;-71
2022/06/29 08:12:23;;;;;;;2.83;1.77;;;;;;;20.94;53.95;101324.69;5112994;27;20044;-71
2022/06/29 08:14:51;;;;;;;3.60;1.70;;;;;;;20.97;53.85;101330.41;5108268;28;20481;-70
2022/06/29 08:17:19;;;;;;;3.05;1.65;;;;;;;21.01;53.90;101325.22;5110388;28;20055;-70
2022/06/29 08:19:47;;;;;;;2.85;1.65;;;;;;;21.01;54.03;101328.75;5102930;28;20071;-70
2022/06/29 08:22:14;;;;;;;3.50;1.63;;;;;;;21.05;54.00;101324.38;5111039;28;20489;-70
2022/06/29 08:24:44;;;;;;;2.78;1.73;;;;;;;21.08;53.94;101323.00;5111279;28;20035;-70
2022/06/29 08:27:12;;;;;;;3.42;1.40;;;;;;;21.11;53.86;101320.50;5107454;28;20047;-71
2022/06/29 08:30:00;;;;;;;4.68;1.65;;;;;;;21.13;53.84;101322.97;5103635;28;20051;-70
2022/06/29 08:32:28;;;;;;;4.85;1.77;;;;;;;21.17;53.78;101318.56;5105114;28;20113;-70
2022/06/29 08:34:59;;;;;;;3.38;1.38;;;;;;;21.20;53.77;101322.66;5110836;28;20048;-70
2022/06/29 08:37:33;;;;;;;11.55;1.95;;;;;;;21.22;53.88;101320.50;5102253;28;20048;-70
2022/06/29 08:40:03;;;;;;;3.13;1.50;;;;;;;21.24;53.97;101319.13;5109147;28;20069;-70
2022/06/29 08:42:31;;;;;;;3.17;1.52;;;;;;;21.27;53.92;101317.72;5108307;28;20071;-71
2022/06/29 08:44:59;;;;;;;1.92;1.40;;;;;;;21.28;53.86;101309.25;5106767;28;20044;-70
2022/06/29 08:47:27;;;;;;;4.15;1.55;;;;;;;21.31;53.84;101311.41;5114239;28;20082;-71
2022/06/29 08:49:55;;;;;;;2.72;1.33;;;;;;;21.36;53.95;101311.38;5101468;28;20211;-70
2022/06/29 08:52:25;;;;;;;2.42;1.60;;;;;;;21.41;54.25;101314.09;5106062;28;20059;-71
2022/06/29 08:54:54;;;;;;;2.20;1.70;;;;;;;21.44;54.02;101308.06;5102315;28;20082;-70
2022/06/29 08:57:24;;;;;;;2.05;1.15;;;;;;;21.48;53.94;101310.22;5117136;28;20054;-71
2022/06/29 08:59:53;;;;;;;2.58;1.30;;;;;;;21.51;54.11;101304.19;5109426;28;20047;-70
2022/06/29 09:02:30;;;;;;;2.90;1.17;;;;;;;21.53;53.92;101305.53;5102475;28;20047;-71
2022/06/29 09:04:58;;;;;;;2.92;1.50;;;;;;;21.57;53.87;101305.78;5110446;28;20078;-70
2022/06/29 09:07:26;;;;;;;2.72;1.50;;;;;;;21.60;53.67;101310.69;5107721;28;20044;-71
2022/06/29 09:09:58;;;;;;;2.53;1.42;;;;;;;21.58;53.81;101293.75;5103119;28;20067;-69
2022/06/29 09:12:28;;;;;;;2.90;1.55;;;;;;;21.67;53.77;101300.25;5111962;28;20108;-71
2022/06/29 09:14:57;;;;;;;1.92;1.10;;;;;;;21.72;53.35;101300.22;5108962;28;20112;-71
2022/06/29 09:17:24;;;;;;;2.92;1.23;;;;;;;21.76;53.61;101309.47;5102759;28;20063;-71
2022/06/29 09:19:54;;;;;;;2.65;1.33;;;;;;;21.83;53.31;101304.50;5109767;28;20066;-69
2022/06/29 09:22:44;;;;;;;3.55;1.45;;;;;;;21.88;53.24;101303.66;5106850;28;20454;-67
2022/06/29 09:25:22;;;;;;;1.85;1.25;;;;;;;21.94;53.75;101307.97;5103632;28;20055;-68
2022/06/29 09:27:55;;;;;;;5.07;1.45;;;;;;;22.02;53.60;101302.72;5109214;28;20120;-69
2022/06/29 09:30:28;;;;;;;1.75;1.20;;;;;;;22.04;53.45;101300.53;5110511;28;20056;-68
2022/06/29 09:33:02;;;;;;;2.45;1.50;;;;;;;22.07;53.40;101299.94;5106748;28;20051;-68
2022/06/29 09:35:30;;;;;;;3.40;1.42;;;;;;;22.10;53.35;101300.47;5108147;28;20150;-68
2022/06/29 09:38:21;;;;;;;3.85;1.30;;;;;;;22.15;53.15;101301.25;5107180;28;20052;-68
2022/06/29 09:41:05;;;;;;;1.90;1.30;;;;;;;22.19;53.01;101296.81;5107986;28;20055;-69
2022/06/29 09:43:35;;;;;;;2.53;1.48;;;;;;;22.23;53.24;101297.06;5100738;28;20063;-68
2022/06/29 09:46:04;;;;;;;1.60;1.30;;;;;;;22.25;53.04;101301.16;5107032;28;20779;-68
2022/06/29 09:48:34;;;;;;;1.52;0.95;;;;;;;22.33;52.75;101302.44;5100248;28;20055;-68
2022/06/29 09:51:30;;;;;;;3.30;1.10;;;;;;;22.36;52.68;101302.69;5103276;28;20143;-67
2022/06/29 09:53:54;;;;;;;3.60;1.35;;;;;;;22.44;52.39;101300.41;5104771;28;20350;-68
2022/06/29 09:56:23;;;;;;;4.57;1.30;;;;;;;22.49;52.53;101300.38;5108059;28;20067;-68
2022/06/29 09:58:53;;;;;;;3.63;1.10;;;;;;;22.65;50.97;101301.78;5101281;28;20396;-67
2022/06/29 10:04:11;;;;;;;2.38;1.20;;;;;;;22.67;51.37;101294.91;5106096;28;20048;-67
2022/06/29 10:06:39;;;;;;;2.80;1.38;;;;;;;22.68;51.25;101293.81;5102113;28;20040;-67
2022/06/29 10:09:07;;;;;;;3.13;1.42;;;;;;;22.66;51.23;101287.81;5102668;28;20047;-67
2022/06/29 10:14:51;;;;;;;1.92;1.05;;;;;;;22.79;51.32;101297.28;5105702;28;20469;-66
2022/06/29 10:17:31;;;;;;;1.52;0.98;;;;;;;22.84;51.52;101299.13;5101640;28;20067;-71
2022/06/29 10:20:14;;;;;;;2.65;1.10;;;;;;;22.90;51.31;101295.22;5110057;28;20052;-69
2022/06/29 10:22:42;;;;;;;4.47;1.08;;;;;;;22.92;51.60;101291.09;5104834;28;20063;-69
2022/06/29 10:25:13;;;;;;;1.75;1.08;;;;;;;22.94;51.74;101286.13;5103027;28;20070;-70
2022/06/29 10:28:10;;;;;;;2.60;1.52;;;;;;;22.99;51.17;101285.25;5102471;28;20051;-68
2022/06/29 10:30:40;;;;;;;1.55;1.15;;;;;;;22.99;51.54;101275.09;5103013;28;20044;-69
2022/06/29 10:33:33;;;;;;;3.83;1.25;;;;;;;23.02;51.99;101285.47;5107684;28;20077;-71
2022/06/29 10:36:04;;;;;;;3.35;1.20;;;;;;;23.04;52.06;101280.50;5107505;28;20458;-70
2022/06/29 10:38:36;;;;;;;2.42;1.10;;;;;;;23.09;52.39;101279.63;5112880;28;20062;-70
2022/06/29 10:41:09;;;;;;;3.70;1.20;;;;;;;23.15;52.28;101270.22;5109833;28;20051;-70
2022/06/29 10:43:37;;;;;;;3.15;1.02;;;;;;;23.19;52.02;101271.25;5104818;28;20044;-70
2022/06/29 10:46:06;;;;;;;1.58;1.10;;;;;;;23.20;52.27;101264.66;5108554;27;20079;-69
2022/06/29 10:48:34;;;;;;;2.75;1.13;;;;;;;23.25;52.39;101259.09;5108153;28;20301;-69
2022/06/29 10:51:02;;;;;;;4.65;1.60;;;;;;;23.27;52.31;101250.56;5111914;28;20056;-69
2022/06/29 10:53:30;;;;;;;2.85;1.30;;;;;;;23.34;52.02;101249.09;5105911;28;20093;-70
2022/06/29 10:55:58;;;;;;;3.47;1.48;;;;;;;23.36;52.11;101254.28;5115734;28;20192;-69
2022/06/29 10:58:26;;;;;;;1.55;0.93;;;;;;;23.45;52.12;101263.47;5110219;28;20035;-70
2022/06/29 11:00:55;;;;;;;2.08;1.00;;;;;;;23.49;52.44;101253.53;5106835;28;20073;-70
2022/06/29 11:03:26;;;;;;;2.25;1.23;;;;;;;23.54;52.21;101249.91;5108691;28;20069;-70
2022/06/29 11:17:39;;;;;;;1.83;1.10;;;;;;;23.80;51.54;101245.63;5031022;28;20046;-71
2022/06/29 11:20:16;;;;;;;4.00;1.42;;;;;;;23.84;51.39;101241.16;5025748;28;20095;-70
2022/06/29 11:22:50;;;;;;;2.22;1.15;;;;;;;23.88;51.49;101244.94;5025789;28;20045;-71
2022/06/29 11:25:18;;;;;;;1.67;1.15;;;;;;;23.94;51.22;101238.25;5020956;28;20061;-71
2022/06/29 11:27:46;;;;;;;2.53;1.27;;;;;;;23.98;51.21;101233.78;5023605;28;20049;-70
2022/06/29 11:30:20;;;;;;;1.73;1.17;;;;;;;24.03;51.03;101238.38;5022598;28;20053;-70
2022/06/29 11:32:50;;;;;;;3.42;1.27;;;;;;;24.02;51.13;101243.03;5020386;28;20100;-70
2022/06/29 11:35:21;;;;;;;3.85;1.17;;;;;;;24.05;51.35;101229.81;5024631;28;20065;-70
2022/06/29 11:37:51;;;;;;;4.85;1.20;;;;;;;24.07;51.33;101233.09;5021652;28;20089;-70
2022/06/29 11:40:20;;;;;;;2.03;1.10;;;;;;;24.13;50.59;101232.69;5020697;28;20053;-70
2022/06/29 11:43:07;;;;;;;1.88;1.08;;;;;;;24.17;50.94;101224.66;5022804;28;20056;-71
2022/06/29 11:45:40;;;;;;;4.25;1.48;;;;;;;24.19;50.33;101225.97;5025531;28;20084;-69
2022/06/29 11:48:13;;;;;;;1.67;1.17;;;;;;;24.21;50.68;101225.69;5024792;28;20042;-69
2022/06/29 11:50:51;;;;;;;2.38;1.30;;;;;;;24.22;50.42;101230.06;5034915;28;20075;-70
2022/06/29 11:53:43;;;;;;;1.63;1.20;;;;;;;24.22;50.36;101225.38;5106175;28;20071;-70
2022/06/29 11:56:13;;;;;;;2.92;1.10;;;;;;;24.26;49.69;101220.13;5104181;28;20048;-70
2022/06/29 11:58:43;;;;;;;1.85;1.20;;;;;;;24.29;50.34;101212.03;5103750;28;20035;-70
2022/06/29 12:01:13;;;;;;;3.08;1.50;;;;;;;24.35;50.02;101215.50;5114633;28;20052;-69
2022/06/29 12:03:49;;;;;;;1.73;1.13;;;;;;;24.37;49.85;101213.28;5105084;28;20054;-70
2022/06/29 12:06:19;;;;;;;2.70;1.13;;;;;;;24.40;49.90;101201.66;5111393;28;20472;-68